sensor_id;sensor_type;location;lat;lon;timestamp;temperature;humidity
40291;DHT22;26000;48.304;13.626;2022-11-20T00:01:10;3.30;99.90
40291;DHT22;26000;48.304;13.626;2022-11-20T00:03:36;3.30;99.90
40291;DHT22;26000;48.304;13.626;2022-11-20T00:06:03;3.20;99.90
40291;DHT22;26000;48.304;13.626;2022-11-20T00:08:29;3.20;99.90
40291;DHT22;26000;48.304;13.626;2022-11-20T00:10:54;3.10;99.90
40291;DHT22;26000;48.304;13.626;2022-11-20T00:13:20;3.30;99.90
40291;DHT22;26000;48.304;13.626;2022-11-20T00:15:46;3.30;99.90
40291;DHT22;26000;48.304;13.626;2022-11-20T00:18:11;3.30;99.90
40291;DHT22;26000;48.304;13.626;2022-11-20T00:20:37;3.30;99.90
40291;DHT22;26000;48.304;13.626;2022-11-20T00:23:02;3.30;99.90
40291;DHT22;26000;48.304;13.626;2022-11-20T00:25:28;3.20;99.90
40291;DHT22;26000;48.304;13.626;2022-11-20T00:27:54;3.10;99.90
40291;DHT22;26000;48.304;13.626;2022-11-20T00:30:19;3.10;99.90
40291;DHT22;26000;48.304;13.626;2022-11-20T00:32:45;3.20;99.90
40291;DHT22;26000;48.304;13.626;2022-11-20T00:35:10;3.20;99.90
40291;DHT22;26000;48.304;13.626;2022-11-20T00:37:36;3.20;99.90
40291;DHT22;26000;48.304;13.626;2022-11-20T00:40:02;3.20;99.90
40291;DHT22;26000;48.304;13.626;2022-11-20T00:42:27;3.30;99.90
40291;DHT22;26000;48.304;13.626;2022-11-20T00:44:53;3.30;99.90
40291;DHT22;26000;48.304;13.626;2022-11-20T00:47:18;3.30;99.90
40291;DHT22;26000;48.304;13.626;2022-11-20T00:49:44;3.20;99.90
40291;DHT22;26000;48.304;13.626;2022-11-20T00:52:09;3.10;99.90
40291;DHT22;26000;48.304;13.626;2022-11-20T00:54:35;2.90;99.90
40291;DHT22;26000;48.304;13.626;2022-11-20T00:57:00;2.90;99.90
40291;DHT22;26000;48.304;13.626;2022-11-20T00:59:26;3.00;99.90
40291;DHT22;26000;48.304;13.626;2022-11-20T01:01:52;3.00;99.90
40291;DHT22;26000;48.304;13.626;2022-11-20T01:04:17;3.10;99.90
40291;DHT22;26000;48.304;13.626;2022-11-20T01:06:43;3.00;99.90
40291;DHT22;26000;48.304;13.626;2022-11-20T01:09:13;3.00;99.90
40291;DHT22;26000;48.304;13.626;2022-11-20T01:11:41;3.00;99.90
40291;DHT22;26000;48.304;13.626;2022-11-20T01:14:11;2.90;99.90
40291;DHT22;26000;48.304;13.626;2022-11-20T01:16:39;2.90;99.90
40291;DHT22;26000;48.304;13.626;2022-11-20T01:19:09;3.10;99.90
40291;DHT22;26000;48.304;13.626;2022-11-20T01:21:38;3.20;99.90
40291;DHT22;26000;48.304;13.626;2022-11-20T01:24:05;3.40;99.90
40291;DHT22;26000;48.304;13.626;2022-11-20T01:26:35;3.40;99.90
40291;DHT22;26000;48.304;13.626;2022-11-20T01:29:02;3.40;99.90
40291;DHT22;26000;48.304;13.626;2022-11-20T01:31:31;3.40;99.90
40291;DHT22;26000;48.304;13.626;2022-11-20T01:33:59;3.40;99.90
40291;DHT22;26000;48.304;13.626;2022-11-20T01:36:27;3.30;99.90
40291;DHT22;26000;48.304;13.626;2022-11-20T01:38:58;3.10;99.90
40291;DHT22;26000;48.304;13.626;2022-11-20T01:41:25;3.20;99.90
40291;DHT22;26000;48.304;13.626;2022-11-20T01:44:12;3.10;99.90
40291;DHT22;26000;48.304;13.626;2022-11-20T01:47:16;3.10;99.90
40291;DHT22;26000;48.304;13.626;2022-11-20T01:49:40;3.20;99.90
40291;DHT22;26000;48.304;13.626;2022-11-20T01:52:20;3.20;99.90
40291;DHT22;26000;48.304;13.626;2022-11-20T01:54:55;3.20;99.90
40291;DHT22;26000;48.304;13.626;2022-11-20T01:57:23;3.20;99.90
40291;DHT22;26000;48.304;13.626;2022-11-20T01:59:57;3.20;99.90
40291;DHT22;26000;48.304;13.626;2022-11-20T02:02:24;3.20;99.90
40291;DHT22;26000;48.304;13.626;2022-11-20T02:04:51;3.40;99.90
40291;DHT22;26000;48.304;13.626;2022-11-20T02:07:20;3.40;99.90
40291;DHT22;26000;48.304;13.626;2022-11-20T02:09:46;3.30;99.90
40291;DHT22;26000;48.304;13.626;2022-11-20T02:12:12;3.30;99.90
40291;DHT22;26000;48.304;13.626;2022-11-20T02:14:57;3.30;99.90
40291;DHT22;26000;48.304;13.626;2022-11-20T02:17:24;3.20;99.90
40291;DHT22;26000;48.304;13.626;2022-11-20T02:19:50;3.20;99.90
40291;DHT22;26000;48.304;13.626;2022-11-20T02:22:27;3.20;99.90
40291;DHT22;26000;48.304;13.626;2022-11-20T02:24:54;3.20;99.90
40291;DHT22;26000;48.304;13.626;2022-11-20T02:27:20;3.20;99.90
40291;DHT22;26000;48.304;13.626;2022-11-20T02:32:23;3.20;99.90
40291;DHT22;26000;48.304;13.626;2022-11-20T02:34:49;3.20;99.90
40291;DHT22;26000;48.304;13.626;2022-11-20T02:37:15;3.20;99.90
40291;DHT22;26000;48.304;13.626;2022-11-20T02:39:42;3.10;99.90
40291;DHT22;26000;48.304;13.626;2022-11-20T02:42:09;3.10;99.90
40291;DHT22;26000;48.304;13.626;2022-11-20T02:44:35;3.20;99.90
40291;DHT22;26000;48.304;13.626;2022-11-20T02:47:01;3.30;99.90
40291;DHT22;26000;48.304;13.626;2022-11-20T02:49:26;3.20;99.90
40291;DHT22;26000;48.304;13.626;2022-11-20T02:51:52;3.30;99.90
40291;DHT22;26000;48.304;13.626;2022-11-20T02:54:17;3.40;99.90
40291;DHT22;26000;48.304;13.626;2022-11-20T02:56:43;3.30;99.90
40291;DHT22;26000;48.304;13.626;2022-11-20T02:59:09;3.20;99.90
40291;DHT22;26000;48.304;13.626;2022-11-20T03:01:35;3.30;99.90
40291;DHT22;26000;48.304;13.626;2022-11-20T03:04:01;3.40;99.90
40291;DHT22;26000;48.304;13.626;2022-11-20T03:06:27;3.50;99.90
40291;DHT22;26000;48.304;13.626;2022-11-20T03:08:52;3.60;99.90
40291;DHT22;26000;48.304;13.626;2022-11-20T03:11:18;3.40;99.90
40291;DHT22;26000;48.304;13.626;2022-11-20T03:13:43;3.50;99.90
40291;DHT22;26000;48.304;13.626;2022-11-20T03:16:15;3.50;99.90
40291;DHT22;26000;48.304;13.626;2022-11-20T03:18:42;3.50;99.90
40291;DHT22;26000;48.304;13.626;2022-11-20T03:21:09;3.40;99.90
40291;DHT22;26000;48.304;13.626;2022-11-20T03:23:35;3.40;99.90
40291;DHT22;26000;48.304;13.626;2022-11-20T03:26:33;3.40;99.90
40291;DHT22;26000;48.304;13.626;2022-11-20T03:29:02;3.40;99.90
40291;DHT22;26000;48.304;13.626;2022-11-20T03:31:32;3.40;99.90
40291;DHT22;26000;48.304;13.626;2022-11-20T03:33:58;3.40;99.90
40291;DHT22;26000;48.304;13.626;2022-11-20T03:36:24;3.40;99.90
40291;DHT22;26000;48.304;13.626;2022-11-20T03:38:50;3.50;99.90
40291;DHT22;26000;48.304;13.626;2022-11-20T03:41:20;3.50;99.90
40291;DHT22;26000;48.304;13.626;2022-11-20T03:43:51;3.50;99.90
40291;DHT22;26000;48.304;13.626;2022-11-20T03:46:17;3.50;99.90
40291;DHT22;26000;48.304;13.626;2022-11-20T03:48:43;3.50;99.90
40291;DHT22;26000;48.304;13.626;2022-11-20T03:51:12;3.40;99.90
40291;DHT22;26000;48.304;13.626;2022-11-20T03:53:40;3.60;99.90
40291;DHT22;26000;48.304;13.626;2022-11-20T03:56:07;3.50;99.90
40291;DHT22;26000;48.304;13.626;2022-11-20T03:58:35;3.50;99.90
40291;DHT22;26000;48.304;13.626;2022-11-20T04:01:11;3.50;99.90
40291;DHT22;26000;48.304;13.626;2022-11-20T04:03:37;3.50;99.90
40291;DHT22;26000;48.304;13.626;2022-11-20T04:06:10;3.40;99.90
40291;DHT22;26000;48.304;13.626;2022-11-20T04:08:36;3.60;99.90
40291;DHT22;26000;48.304;13.626;2022-11-20T04:11:09;3.50;99.90
40291;DHT22;26000;48.304;13.626;2022-11-20T04:13:35;3.50;99.90
40291;DHT22;26000;48.304;13.626;2022-11-20T04:16:00;3.50;99.90
40291;DHT22;26000;48.304;13.626;2022-11-20T04:18:26;3.50;99.90
40291;DHT22;26000;48.304;13.626;2022-11-20T04:20:52;3.40;99.90
40291;DHT22;26000;48.304;13.626;2022-11-20T04:23:17;3.50;99.90
40291;DHT22;26000;48.304;13.626;2022-11-20T04:25:43;3.70;99.90
40291;DHT22;26000;48.304;13.626;2022-11-20T04:28:08;3.70;99.90
40291;DHT22;26000;48.304;13.626;2022-11-20T04:30:34;3.80;99.90
40291;DHT22;26000;48.304;13.626;2022-11-20T04:32:59;3.70;99.90
40291;DHT22;26000;48.304;13.626;2022-11-20T04:35:25;3.80;99.90
40291;DHT22;26000;48.304;13.626;2022-11-20T04:37:51;3.80;99.90
40291;DHT22;26000;48.304;13.626;2022-11-20T04:40:17;3.80;99.90
40291;DHT22;26000;48.304;13.626;2022-11-20T04:42:42;3.70;99.90
40291;DHT22;26000;48.304;13.626;2022-11-20T04:45:08;3.60;99.90
40291;DHT22;26000;48.304;13.626;2022-11-20T04:47:34;3.60;99.90
40291;DHT22;26000;48.304;13.626;2022-11-20T04:49:59;3.60;99.90
40291;DHT22;26000;48.304;13.626;2022-11-20T04:52:25;3.70;99.90
40291;DHT22;26000;48.304;13.626;2022-11-20T04:54:51;3.80;99.90
40291;DHT22;26000;48.304;13.626;2022-11-20T04:57:24;3.80;99.90
40291;DHT22;26000;48.304;13.626;2022-11-20T04:59:50;3.80;99.90
40291;DHT22;26000;48.304;13.626;2022-11-20T05:02:16;3.80;99.90
40291;DHT22;26000;48.304;13.626;2022-11-20T05:04:42;3.80;99.90
40291;DHT22;26000;48.304;13.626;2022-11-20T05:07:11;3.80;99.90
40291;DHT22;26000;48.304;13.626;2022-11-20T05:09:37;3.80;99.90
40291;DHT22;26000;48.304;13.626;2022-11-20T05:12:03;3.80;99.90
40291;DHT22;26000;48.304;13.626;2022-11-20T05:14:28;3.90;99.90
40291;DHT22;26000;48.304;13.626;2022-11-20T05:16:54;3.80;99.90
40291;DHT22;26000;48.304;13.626;2022-11-20T05:19:20;3.80;99.90
40291;DHT22;26000;48.304;13.626;2022-11-20T05:21:45;3.80;99.90
40291;DHT22;26000;48.304;13.626;2022-11-20T05:24:11;3.80;99.90
40291;DHT22;26000;48.304;13.626;2022-11-20T05:26:37;3.80;99.90
40291;DHT22;26000;48.304;13.626;2022-11-20T05:29:02;3.80;99.90
40291;DHT22;26000;48.304;13.626;2022-11-20T05:31:28;3.90;99.90
40291;DHT22;26000;48.304;13.626;2022-11-20T05:33:55;3.90;99.90
40291;DHT22;26000;48.304;13.626;2022-11-20T05:36:21;3.90;99.90
40291;DHT22;26000;48.304;13.626;2022-11-20T05:38:47;3.90;99.90
40291;DHT22;26000;48.304;13.626;2022-11-20T05:41:15;3.90;99.90
40291;DHT22;26000;48.304;13.626;2022-11-20T05:43:42;4.00;99.90
40291;DHT22;26000;48.304;13.626;2022-11-20T05:46:10;4.00;99.90
40291;DHT22;26000;48.304;13.626;2022-11-20T05:48:37;3.90;99.90
40291;DHT22;26000;48.304;13.626;2022-11-20T05:51:04;3.90;99.90
40291;DHT22;26000;48.304;13.626;2022-11-20T05:53:32;3.90;99.90
40291;DHT22;26000;48.304;13.626;2022-11-20T05:56:08;3.90;99.90
40291;DHT22;26000;48.304;13.626;2022-11-20T05:58:35;3.90;99.90
40291;DHT22;26000;48.304;13.626;2022-11-20T06:01:10;3.90;99.90
40291;DHT22;26000;48.304;13.626;2022-11-20T06:03:37;3.80;99.90
40291;DHT22;26000;48.304;13.626;2022-11-20T06:06:03;3.90;99.90
40291;DHT22;26000;48.304;13.626;2022-11-20T06:08:29;4.00;99.90
40291;DHT22;26000;48.304;13.626;2022-11-20T06:10:55;4.00;99.90
40291;DHT22;26000;48.304;13.626;2022-11-20T06:13:21;4.00;99.90
40291;DHT22;26000;48.304;13.626;2022-11-20T06:15:53;3.90;99.90
40291;DHT22;26000;48.304;13.626;2022-11-20T06:18:19;4.00;99.90
40291;DHT22;26000;48.304;13.626;2022-11-20T06:20:45;4.00;99.90
40291;DHT22;26000;48.304;13.626;2022-11-20T06:23:12;4.10;99.90
40291;DHT22;26000;48.304;13.626;2022-11-20T06:25:41;4.10;99.90
40291;DHT22;26000;48.304;13.626;2022-11-20T06:28:08;4.00;99.90
40291;DHT22;26000;48.304;13.626;2022-11-20T06:30:34;4.00;99.90
40291;DHT22;26000;48.304;13.626;2022-11-20T06:33:00;4.20;99.90
40291;DHT22;26000;48.304;13.626;2022-11-20T06:35:26;4.20;99.90
40291;DHT22;26000;48.304;13.626;2022-11-20T06:37:51;4.20;99.90
40291;DHT22;26000;48.304;13.626;2022-11-20T06:40:17;4.30;99.90
40291;DHT22;26000;48.304;13.626;2022-11-20T06:42:42;4.30;99.90
40291;DHT22;26000;48.304;13.626;2022-11-20T06:45:09;4.20;99.90
40291;DHT22;26000;48.304;13.626;2022-11-20T06:47:34;4.10;99.90
40291;DHT22;26000;48.304;13.626;2022-11-20T06:50:00;4.10;99.90
40291;DHT22;26000;48.304;13.626;2022-11-20T06:52:25;4.00;99.90
40291;DHT22;26000;48.304;13.626;2022-11-20T06:54:51;4.00;99.90
40291;DHT22;26000;48.304;13.626;2022-11-20T06:57:17;4.20;99.90
40291;DHT22;26000;48.304;13.626;2022-11-20T06:59:42;4.20;99.90
40291;DHT22;26000;48.304;13.626;2022-11-20T07:02:11;4.30;99.90
40291;DHT22;26000;48.304;13.626;2022-11-20T07:04:37;4.20;99.90
40291;DHT22;26000;48.304;13.626;2022-11-20T07:07:03;4.20;99.90
40291;DHT22;26000;48.304;13.626;2022-11-20T07:09:29;4.30;99.90
40291;DHT22;26000;48.304;13.626;2022-11-20T07:11:54;4.30;99.90
40291;DHT22;26000;48.304;13.626;2022-11-20T07:14:20;4.20;99.90
40291;DHT22;26000;48.304;13.626;2022-11-20T07:16:45;4.20;99.90
40291;DHT22;26000;48.304;13.626;2022-11-20T07:19:11;4.20;99.90
40291;DHT22;26000;48.304;13.626;2022-11-20T07:21:37;4.20;99.90
40291;DHT22;26000;48.304;13.626;2022-11-20T07:24:02;4.30;99.90
40291;DHT22;26000;48.304;13.626;2022-11-20T07:26:28;4.30;99.90
40291;DHT22;26000;48.304;13.626;2022-11-20T07:28:54;4.30;99.90
40291;DHT22;26000;48.304;13.626;2022-11-20T07:31:19;4.30;99.90
40291;DHT22;26000;48.304;13.626;2022-11-20T07:33:45;4.40;99.90
40291;DHT22;26000;48.304;13.626;2022-11-20T07:36:11;4.40;99.90
40291;DHT22;26000;48.304;13.626;2022-11-20T07:38:37;4.40;99.90
40291;DHT22;26000;48.304;13.626;2022-11-20T07:41:03;4.40;99.90
40291;DHT22;26000;48.304;13.626;2022-11-20T07:43:29;4.40;99.90
40291;DHT22;26000;48.304;13.626;2022-11-20T07:45:56;4.40;99.90
40291;DHT22;26000;48.304;13.626;2022-11-20T07:48:22;4.50;99.90
40291;DHT22;26000;48.304;13.626;2022-11-20T07:50:47;4.50;99.90
40291;DHT22;26000;48.304;13.626;2022-11-20T07:53:13;4.50;99.90
40291;DHT22;26000;48.304;13.626;2022-11-20T07:55:39;4.50;99.90
40291;DHT22;26000;48.304;13.626;2022-11-20T07:58:05;4.60;99.90
40291;DHT22;26000;48.304;13.626;2022-11-20T08:00:30;4.60;99.90
40291;DHT22;26000;48.304;13.626;2022-11-20T08:02:56;4.60;99.90
40291;DHT22;26000;48.304;13.626;2022-11-20T08:05:22;4.60;99.90
40291;DHT22;26000;48.304;13.626;2022-11-20T08:07:47;4.70;99.90
40291;DHT22;26000;48.304;13.626;2022-11-20T08:10:14;4.70;99.90
40291;DHT22;26000;48.304;13.626;2022-11-20T08:12:48;4.80;99.90
40291;DHT22;26000;48.304;13.626;2022-11-20T08:15:34;4.80;99.90
40291;DHT22;26000;48.304;13.626;2022-11-20T08:18:01;4.80;99.90
40291;DHT22;26000;48.304;13.626;2022-11-20T08:20:28;4.80;99.90
40291;DHT22;26000;48.304;13.626;2022-11-20T08:22:58;4.80;99.90
40291;DHT22;26000;48.304;13.626;2022-11-20T08:25:25;4.80;99.90
40291;DHT22;26000;48.304;13.626;2022-11-20T08:27:51;4.90;99.90
40291;DHT22;26000;48.304;13.626;2022-11-20T08:30:16;4.90;99.90
40291;DHT22;26000;48.304;13.626;2022-11-20T08:32:42;4.90;99.90
40291;DHT22;26000;48.304;13.626;2022-11-20T08:35:08;4.90;99.90
40291;DHT22;26000;48.304;13.626;2022-11-20T08:37:33;4.80;99.90
40291;DHT22;26000;48.304;13.626;2022-11-20T08:39:59;4.80;99.90
40291;DHT22;26000;48.304;13.626;2022-11-20T08:42:25;4.90;99.90
40291;DHT22;26000;48.304;13.626;2022-11-20T08:44:50;4.90;99.90
40291;DHT22;26000;48.304;13.626;2022-11-20T08:47:16;5.00;99.90
40291;DHT22;26000;48.304;13.626;2022-11-20T08:49:41;5.00;99.90
40291;DHT22;26000;48.304;13.626;2022-11-20T08:52:07;5.10;99.90
40291;DHT22;26000;48.304;13.626;2022-11-20T08:54:33;5.20;99.90
40291;DHT22;26000;48.304;13.626;2022-11-20T08:56:58;5.40;99.90
40291;DHT22;26000;48.304;13.626;2022-11-20T08:59:24;5.50;99.90
40291;DHT22;26000;48.304;13.626;2022-11-20T09:01:49;5.60;99.90
40291;DHT22;26000;48.304;13.626;2022-11-20T09:04:15;5.70;99.90
40291;DHT22;26000;48.304;13.626;2022-11-20T09:06:41;5.80;99.90
40291;DHT22;26000;48.304;13.626;2022-11-20T09:09:06;5.90;99.90
40291;DHT22;26000;48.304;13.626;2022-11-20T09:11:32;6.10;99.90
40291;DHT22;26000;48.304;13.626;2022-11-20T09:13:58;6.30;99.90
40291;DHT22;26000;48.304;13.626;2022-11-20T09:16:23;6.40;99.90
40291;DHT22;26000;48.304;13.626;2022-11-20T09:18:50;6.60;99.90
40291;DHT22;26000;48.304;13.626;2022-11-20T09:21:16;6.80;99.90
40291;DHT22;26000;48.304;13.626;2022-11-20T09:23:42;7.20;99.90
40291;DHT22;26000;48.304;13.626;2022-11-20T09:26:13;7.50;99.90
40291;DHT22;26000;48.304;13.626;2022-11-20T09:28:39;7.70;99.90
40291;DHT22;26000;48.304;13.626;2022-11-20T09:31:11;7.80;99.90
40291;DHT22;26000;48.304;13.626;2022-11-20T09:33:39;8.10;99.90
40291;DHT22;26000;48.304;13.626;2022-11-20T09:36:05;8.30;99.90
40291;DHT22;26000;48.304;13.626;2022-11-20T09:38:30;8.50;99.90
40291;DHT22;26000;48.304;13.626;2022-11-20T09:41:06;8.60;99.90
40291;DHT22;26000;48.304;13.626;2022-11-20T09:46:05;9.00;99.90
40291;DHT22;26000;48.304;13.626;2022-11-20T09:51:40;9.00;99.90
40291;DHT22;26000;48.304;13.626;2022-11-20T09:54:18;8.80;99.90
40291;DHT22;26000;48.304;13.626;2022-11-20T09:56:56;8.80;99.90
40291;DHT22;26000;48.304;13.626;2022-11-20T10:01:49;8.70;99.90
40291;DHT22;26000;48.304;13.626;2022-11-20T10:04:20;8.60;99.90
40291;DHT22;26000;48.304;13.626;2022-11-20T10:09:30;8.30;99.90
40291;DHT22;26000;48.304;13.626;2022-11-20T10:12:14;8.30;99.90
40291;DHT22;26000;48.304;13.626;2022-11-20T10:23:12;9.10;99.90
40291;DHT22;26000;48.304;13.626;2022-11-20T10:25:41;9.10;99.90
40291;DHT22;26000;48.304;13.626;2022-11-20T10:28:10;8.90;99.90
40291;DHT22;26000;48.304;13.626;2022-11-20T10:30:44;8.80;99.90
40291;DHT22;26000;48.304;13.626;2022-11-20T10:33:21;8.60;99.90
40291;DHT22;26000;48.304;13.626;2022-11-20T10:38:34;8.50;99.90
40291;DHT22;26000;48.304;13.626;2022-11-20T10:41:03;8.30;99.90
40291;DHT22;26000;48.304;13.626;2022-11-20T10:43:54;8.20;99.90
40291;DHT22;26000;48.304;13.626;2022-11-20T10:46:22;8.20;99.90
40291;DHT22;26000;48.304;13.626;2022-11-20T10:48:49;8.10;99.90
40291;DHT22;26000;48.304;13.626;2022-11-20T10:54:22;7.90;99.90
40291;DHT22;26000;48.304;13.626;2022-11-20T10:56:56;8.10;99.90
40291;DHT22;26000;48.304;13.626;2022-11-20T10:59:45;8.10;99.90
40291;DHT22;26000;48.304;13.626;2022-11-20T11:02:22;8.00;99.90
40291;DHT22;26000;48.304;13.626;2022-11-20T11:04:53;8.00;99.90
40291;DHT22;26000;48.304;13.626;2022-11-20T11:07:33;7.90;99.90
40291;DHT22;26000;48.304;13.626;2022-11-20T11:10:00;7.90;99.90
40291;DHT22;26000;48.304;13.626;2022-11-20T11:12:28;7.90;99.90
40291;DHT22;26000;48.304;13.626;2022-11-20T11:14:56;7.90;99.90
40291;DHT22;26000;48.304;13.626;2022-11-20T11:17:33;7.90;99.90
40291;DHT22;26000;48.304;13.626;2022-11-20T11:20:20;7.90;99.90
40291;DHT22;26000;48.304;13.626;2022-11-20T11:22:57;7.80;99.90
40291;DHT22;26000;48.304;13.626;2022-11-20T11:25:35;7.80;99.90
40291;DHT22;26000;48.304;13.626;2022-11-20T11:28:19;7.80;99.90
40291;DHT22;26000;48.304;13.626;2022-11-20T11:30:45;7.80;99.90
40291;DHT22;26000;48.304;13.626;2022-11-20T11:33:18;7.90;99.90
40291;DHT22;26000;48.304;13.626;2022-11-20T11:35:50;7.90;99.90
40291;DHT22;26000;48.304;13.626;2022-11-20T11:38:23;7.80;99.90
40291;DHT22;26000;48.304;13.626;2022-11-20T11:40:54;7.90;99.90
40291;DHT22;26000;48.304;13.626;2022-11-20T11:43:22;7.80;99.90
40291;DHT22;26000;48.304;13.626;2022-11-20T11:46:34;7.80;99.90
40291;DHT22;26000;48.304;13.626;2022-11-20T12:00:14;8.00;99.90
40291;DHT22;26000;48.304;13.626;2022-11-20T12:15:44;8.00;99.90
40291;DHT22;26000;48.304;13.626;2022-11-20T12:18:15;8.10;99.90
40291;DHT22;26000;48.304;13.626;2022-11-20T12:20:48;8.20;99.90
40291;DHT22;26000;48.304;13.626;2022-11-20T12:26:13;8.10;99.90
40291;DHT22;26000;48.304;13.626;2022-11-20T12:29:10;8.10;99.90
40291;DHT22;26000;48.304;13.626;2022-11-20T12:31:56;8.30;99.90
40291;DHT22;26000;48.304;13.626;2022-11-20T12:37:42;8.30;99.90
40291;DHT22;26000;48.304;13.626;2022-11-20T12:46:29;8.20;99.90
40291;DHT22;26000;48.304;13.626;2022-11-20T12:49:08;8.10;99.90
40291;DHT22;26000;48.304;13.626;2022-11-20T12:51:46;8.20;99.90
40291;DHT22;26000;48.304;13.626;2022-11-20T12:54:26;8.20;99.90
40291;DHT22;26000;48.304;13.626;2022-11-20T13:07:55;8.00;99.90
40291;DHT22;26000;48.304;13.626;2022-11-20T13:10:43;8.10;99.90
40291;DHT22;26000;48.304;13.626;2022-11-20T13:14:04;8.10;99.90
40291;DHT22;26000;48.304;13.626;2022-11-20T13:16:09;8.00;99.90
40291;DHT22;26000;48.304;13.626;2022-11-20T13:18:39;8.00;99.90
40291;DHT22;26000;48.304;13.626;2022-11-20T13:21:35;8.10;99.90
40291;DHT22;26000;48.304;13.626;2022-11-20T13:24:06;8.10;99.90
40291;DHT22;26000;48.304;13.626;2022-11-20T13:26:32;8.00;99.90
40291;DHT22;26000;48.304;13.626;2022-11-20T13:29:18;8.00;99.90
40291;DHT22;26000;48.304;13.626;2022-11-20T13:31:45;8.00;99.90
40291;DHT22;26000;48.304;13.626;2022-11-20T13:34:26;7.90;99.90
40291;DHT22;26000;48.304;13.626;2022-11-20T13:36:54;8.00;99.90
40291;DHT22;26000;48.304;13.626;2022-11-20T13:39:28;8.00;99.90
40291;DHT22;26000;48.304;13.626;2022-11-20T13:42:19;8.00;99.90
40291;DHT22;26000;48.304;13.626;2022-11-20T13:44:48;8.00;99.90
40291;DHT22;26000;48.304;13.626;2022-11-20T13:47:27;8.00;99.90
40291;DHT22;26000;48.304;13.626;2022-11-20T13:49:54;8.00;99.90
40291;DHT22;26000;48.304;13.626;2022-11-20T14:01:19;8.00;99.90
40291;DHT22;26000;48.304;13.626;2022-11-20T14:03:46;7.90;99.90
40291;DHT22;26000;48.304;13.626;2022-11-20T14:06:29;8.00;99.90
40291;DHT22;26000;48.304;13.626;2022-11-20T14:08:56;8.00;99.90
40291;DHT22;26000;48.304;13.626;2022-11-20T14:11:25;8.00;99.90
40291;DHT22;26000;48.304;13.626;2022-11-20T14:14:13;8.00;99.90
40291;DHT22;26000;48.304;13.626;2022-11-20T14:16:39;8.00;99.90
40291;DHT22;26000;48.304;13.626;2022-11-20T14:21:51;8.00;99.90
40291;DHT22;26000;48.304;13.626;2022-11-20T14:24:24;8.00;99.90
40291;DHT22;26000;48.304;13.626;2022-11-20T14:26:50;8.00;99.90
40291;DHT22;26000;48.304;13.626;2022-11-20T14:29:21;8.00;99.90
40291;DHT22;26000;48.304;13.626;2022-11-20T14:31:52;7.90;99.90
40291;DHT22;26000;48.304;13.626;2022-11-20T14:34:24;7.90;99.90
40291;DHT22;26000;48.304;13.626;2022-11-20T14:36:59;7.90;99.90
40291;DHT22;26000;48.304;13.626;2022-11-20T14:41:54;8.00;99.90
40291;DHT22;26000;48.304;13.626;2022-11-20T14:44:25;8.00;99.90
40291;DHT22;26000;48.304;13.626;2022-11-20T14:46:51;8.00;99.90
40291;DHT22;26000;48.304;13.626;2022-11-20T14:49:18;8.00;99.90
40291;DHT22;26000;48.304;13.626;2022-11-20T14:51:43;8.00;99.90
40291;DHT22;26000;48.304;13.626;2022-11-20T14:54:20;7.90;99.90
40291;DHT22;26000;48.304;13.626;2022-11-20T14:56:59;7.90;99.90
40291;DHT22;26000;48.304;13.626;2022-11-20T14:59:28;8.00;99.90
40291;DHT22;26000;48.304;13.626;2022-11-20T15:02:03;8.00;99.90
40291;DHT22;26000;48.304;13.626;2022-11-20T15:04:30;8.10;99.90
40291;DHT22;26000;48.304;13.626;2022-11-20T15:06:58;8.10;99.90
40291;DHT22;26000;48.304;13.626;2022-11-20T15:09:24;8.00;99.90
40291;DHT22;26000;48.304;13.626;2022-11-20T15:11:55;8.00;99.90
40291;DHT22;26000;48.304;13.626;2022-11-20T15:14:21;8.00;99.90
40291;DHT22;26000;48.304;13.626;2022-11-20T15:16:48;8.20;99.90
40291;DHT22;26000;48.304;13.626;2022-11-20T15:19:18;8.80;99.90
40291;DHT22;26000;48.304;13.626;2022-11-20T15:21:44;9.40;99.90
40291;DHT22;26000;48.304;13.626;2022-11-20T15:24:10;10.00;99.90
40291;DHT22;26000;48.304;13.626;2022-11-20T15:26:36;9.90;99.90
40291;DHT22;26000;48.304;13.626;2022-11-20T15:29:02;9.60;99.90
40291;DHT22;26000;48.304;13.626;2022-11-20T15:31:29;9.30;99.90
40291;DHT22;26000;48.304;13.626;2022-11-20T15:33:54;9.00;99.90
40291;DHT22;26000;48.304;13.626;2022-11-20T15:36:20;8.70;99.90
40291;DHT22;26000;48.304;13.626;2022-11-20T15:38:46;8.50;99.90
40291;DHT22;26000;48.304;13.626;2022-11-20T15:41:11;8.40;99.90
40291;DHT22;26000;48.304;13.626;2022-11-20T15:43:37;8.20;99.90
40291;DHT22;26000;48.304;13.626;2022-11-20T15:46:06;8.10;99.90
40291;DHT22;26000;48.304;13.626;2022-11-20T15:48:51;8.10;99.90
40291;DHT22;26000;48.304;13.626;2022-11-20T15:51:27;8.10;99.90
40291;DHT22;26000;48.304;13.626;2022-11-20T15:53:54;8.00;99.90
40291;DHT22;26000;48.304;13.626;2022-11-20T15:56:20;7.90;99.90
40291;DHT22;26000;48.304;13.626;2022-11-20T15:58:46;7.90;99.90
40291;DHT22;26000;48.304;13.626;2022-11-20T16:01:18;7.80;99.90
40291;DHT22;26000;48.304;13.626;2022-11-20T16:03:44;7.70;99.90
40291;DHT22;26000;48.304;13.626;2022-11-20T16:06:10;7.80;99.90
40291;DHT22;26000;48.304;13.626;2022-11-20T16:08:36;7.80;99.90
40291;DHT22;26000;48.304;13.626;2022-11-20T16:11:02;7.80;99.90
40291;DHT22;26000;48.304;13.626;2022-11-20T16:13:28;7.70;99.90
40291;DHT22;26000;48.304;13.626;2022-11-20T16:18:45;7.70;99.90
40291;DHT22;26000;48.304;13.626;2022-11-20T16:21:11;7.60;99.90
40291;DHT22;26000;48.304;13.626;2022-11-20T16:23:38;7.60;99.90
40291;DHT22;26000;48.304;13.626;2022-11-20T16:26:14;7.60;99.90
40291;DHT22;26000;48.304;13.626;2022-11-20T16:28:42;7.60;99.90
40291;DHT22;26000;48.304;13.626;2022-11-20T16:31:10;7.60;99.90
40291;DHT22;26000;48.304;13.626;2022-11-20T16:33:36;7.60;99.90
40291;DHT22;26000;48.304;13.626;2022-11-20T16:36:12;7.70;99.90
40291;DHT22;26000;48.304;13.626;2022-11-20T16:38:38;7.60;99.90
40291;DHT22;26000;48.304;13.626;2022-11-20T16:41:04;7.60;99.90
40291;DHT22;26000;48.304;13.626;2022-11-20T16:43:30;7.60;99.90
40291;DHT22;26000;48.304;13.626;2022-11-20T16:45:55;7.50;99.90
40291;DHT22;26000;48.304;13.626;2022-11-20T16:48:21;7.60;99.90
40291;DHT22;26000;48.304;13.626;2022-11-20T16:50:48;7.60;99.90
40291;DHT22;26000;48.304;13.626;2022-11-20T16:53:14;7.50;99.90
40291;DHT22;26000;48.304;13.626;2022-11-20T16:55:39;7.50;99.90
40291;DHT22;26000;48.304;13.626;2022-11-20T16:58:05;7.50;99.90
40291;DHT22;26000;48.304;13.626;2022-11-20T17:00:30;7.40;99.90
40291;DHT22;26000;48.304;13.626;2022-11-20T17:02:56;7.40;99.90
40291;DHT22;26000;48.304;13.626;2022-11-20T17:05:21;7.40;99.90
40291;DHT22;26000;48.304;13.626;2022-11-20T17:07:47;7.40;99.90
40291;DHT22;26000;48.304;13.626;2022-11-20T17:10:13;7.40;99.90
40291;DHT22;26000;48.304;13.626;2022-11-20T17:12:38;7.40;99.90